Stations météo

réclame
Mon MeteoGroup
Palacios de la Sierra, Espagne (8149): Température de l'air & dewpoint: 15.08.2018 04:00:00 - 21.08.2018 04:00:00 (CEST)Palacios de la Sierra, Espagne (8149): Vitesse du vent & gusts: 15.08.2018 04:00:00 - 21.08.2018 04:00:00 (CEST)Palacios de la Sierra, Espagne (8149): Direction du vent: 15.08.2018 04:00:00 - 21.08.2018 04:00:00 (CEST)Palacios de la Sierra, Espagne (8149): visibility: 15.08.2018 04:00:00 - 21.08.2018 04:00:00 (CEST)Palacios de la Sierra, Espagne (8149): Ensoleillement: 15.08.2018 04:00:00 - 21.08.2018 04:00:00 (CEST)Palacios de la Sierra, Espagne (8149): Quantités de précipitations: 15.08.2018 04:00:00 - 21.08.2018 04:00:00 (CEST)
Date & Time tt [°C] td [°C] ff [km/h] ff [knt] fx [km/h] fx [knt] dd vv [km] sd [min] rr [mm]
21.08.2018 04:00:00 - - - - - - - - - -
21.08.2018 03:00:00 16,8 5,5 4 2 16 8 WNW 20 0 0,0
21.08.2018 02:00:00 19,4 2,3 5 3 22 12 SE 20 0 -
21.08.2018 01:00:00 19,5 4,8 9 5 16 9 S 20 0 0,0
21.08.2018 00:00:00 19,1 7,6 7 4 19 10 S 20 0 0,0
20.08.2018 23:00:00 19,4 8,4 4 2 11 6 S 20 0 0,0
20.08.2018 22:00:00 20,8 8,1 8 5 15 8 S 20 0 0,0
20.08.2018 21:00:00 23,2 6,1 5 3 21 11 SSW 20 42 0,0
20.08.2018 20:00:00 26,8 4,5 11 6 25 13 E 20 60 -
20.08.2018 19:00:00 28,7 4,8 13 7 32 17 E 20 60 0,0
20.08.2018 18:00:00 29,2 5,3 16 9 34 18 E 20 49 0,0
20.08.2018 17:00:00 29,3 4,6 8 4 21 12 SSW 20 40 0,0
20.08.2018 16:00:00 31,2 4,8 8 5 18 10 WNW 20 59 0,0
20.08.2018 15:00:00 29,3 4,6 6 4 17 9 SW 20 60 0,0
20.08.2018 14:00:00 28,6 4,8 6 4 23 12 N 20 60 -
20.08.2018 13:00:00 26,9 5,8 6 3 14 8 SW 20 60 0,0
20.08.2018 12:00:00 25,1 5,3 5 3 13 7 WSW 20 60 0,0
20.08.2018 11:00:00 22,0 8,8 4 2 10 5 N 20 60 0,0
20.08.2018 10:00:00 17,8 8,9 4 2 9 5 NW 20 60 0,0
20.08.2018 09:00:00 12,5 7,8 1 1 5 3 NNW 20 60 0,0
20.08.2018 08:00:00 7,8 5,5 2 1 6 4 N 20 14 -
20.08.2018 07:00:00 7,0 4,8 3 1 8 4 W 20 0 0,0
20.08.2018 06:00:00 8,2 5,8 1 1 7 4 NNW 20 0 0,0
20.08.2018 05:00:00 9,0 6,4 1 1 10 5 SW 20 0 0,0
20.08.2018 04:00:00 9,3 6,4 5 3 10 5 NW 20 0 0,0
20.08.2018 03:00:00 9,9 7,1 3 1 8 4 NNW 20 0 0,0
20.08.2018 02:00:00 11,0 8,0 1 1 7 4 W 20 0 -
20.08.2018 01:00:00 12,6 8,3 3 2 5 3 NW 20 0 0,0
20.08.2018 00:00:00 15,6 9,0 3 2 10 6 W 20 0 0,0
19.08.2018 23:00:00 18,7 9,4 7 4 16 8 S 20 0 0,0
19.08.2018 22:00:00 19,8 8,5 11 6 16 8 S 20 0 0,0
19.08.2018 21:00:00 22,5 5,8 6 4 28 15 SE 20 47 0,0
19.08.2018 20:00:00 25,3 7,0 16 9 34 18 E 20 60 -
19.08.2018 19:00:00 28,2 3,0 13 7 23 12 E 20 60 0,0
19.08.2018 18:00:00 28,8 1,3 8 4 26 14 SE 20 60 0,0
19.08.2018 17:00:00 28,7 1,3 13 7 23 13 E 20 60 0,0
19.08.2018 16:00:00 28,3 2,5 9 5 23 12 ENE 20 60 0,0
19.08.2018 15:00:00 27,7 1,3 10 5 24 13 E 20 60 0,0
19.08.2018 14:00:00 26,2 1,5 11 6 28 15 ENE 20 60 -
19.08.2018 13:00:00 25,0 2,5 10 6 35 19 E 20 60 0,0
19.08.2018 12:00:00 23,7 3,0 9 5 24 13 SE 20 60 0,0
19.08.2018 11:00:00 21,6 6,2 8 5 21 12 E 20 60 0,0
19.08.2018 10:00:00 17,6 6,4 9 5 16 9 E 20 60 0,0
19.08.2018 09:00:00 10,5 5,6 0 0 5 3 N 20 60 0,0
19.08.2018 08:00:00 7,0 3,6 1 1 7 4 NNE 20 15 -
19.08.2018 07:00:00 6,4 3,2 3 1 9 5 E 20 0 0,0
19.08.2018 06:00:00 7,0 4,3 4 2 11 6 ESE 20 0 0,0
19.08.2018 05:00:00 7,4 4,1 4 2 9 5 SE 20 0 0,0
19.08.2018 04:00:00 7,6 5,0 3 1 6 3 ESE 20 0 0,0
19.08.2018 03:00:00 9,5 5,6 4 2 9 5 ESE 20 0 0,0
19.08.2018 02:00:00 10,8 6,4 5 3 11 6 S 20 0 -
19.08.2018 01:00:00 12,1 5,9 1 1 11 6 SE 20 0 0,0
19.08.2018 00:00:00 14,9 6,7 6 4 19 11 SSE 20 0 0,0
18.08.2018 23:00:00 16,1 6,8 11 6 22 12 SSE 20 0 0,0
18.08.2018 22:00:00 17,5 7,3 11 6 21 12 SSE 20 0 0,0
18.08.2018 21:00:00 19,7 6,7 12 6 27 15 SE 20 52 0,0
18.08.2018 20:00:00 22,8 6,1 17 9 29 16 ESE 20 60 -
18.08.2018 19:00:00 26,6 -2,2 8 5 19 11 SSW 20 60 0,0
18.08.2018 18:00:00 27,2 -1,7 6 3 19 10 SSE 20 60 0,0
18.08.2018 17:00:00 27,7 -1,2 8 4 23 12 WNW 20 60 0,0
18.08.2018 16:00:00 26,4 -1,4 10 6 22 12 WNW 20 60 0,0
18.08.2018 15:00:00 25,7 -0,5 7 4 20 11 WNW 20 60 0,0
18.08.2018 14:00:00 23,8 -2,0 6 4 14 8 NE 20 60 -
18.08.2018 13:00:00 21,7 0,9 5 3 14 8 ENE 20 60 0,0
18.08.2018 12:00:00 19,9 3,2 5 3 13 7 W 20 60 0,0
18.08.2018 11:00:00 16,4 4,1 4 2 11 6 NNW 20 60 0,0
18.08.2018 10:00:00 12,4 4,8 4 2 9 5 NNE 20 60 0,0
18.08.2018 09:00:00 8,0 4,5 1 1 6 3 ENE 20 60 0,0
18.08.2018 08:00:00 3,7 1,9 1 1 4 2 NNW 20 16 -
18.08.2018 07:00:00 3,4 1,5 0 0 11 6 N 20 0 0,0
18.08.2018 06:00:00 4,5 2,3 2 1 13 7 E 20 0 0,0
18.08.2018 05:00:00 4,7 3,2 3 1 6 3 SW 20 0 0,0
18.08.2018 04:00:00 6,0 3,4 1 1 6 3 NE 20 0 0,0
18.08.2018 03:00:00 7,2 4,5 4 2 11 6 NW 20 0 0,0
18.08.2018 02:00:00 9,4 5,1 7 4 12 7 SSW 20 0 -
18.08.2018 01:00:00 9,9 6,2 6 3 11 6 S 20 0 0,0
18.08.2018 00:00:00 11,3 7,3 7 4 11 6 SSW 20 0 0,0
17.08.2018 23:00:00 11,6 7,6 8 4 14 8 SSW 20 0 0,0
17.08.2018 22:00:00 13,0 7,7 6 3 29 16 S 20 0 0,0
17.08.2018 21:00:00 14,6 8,1 18 10 30 16 ESE 20 53 0,0
17.08.2018 20:00:00 17,2 9,2 16 9 29 16 E 20 60 -
17.08.2018 19:00:00 20,3 9,2 16 9 35 19 E 20 60 0,0
17.08.2018 18:00:00 21,5 10,0 20 11 37 20 E 20 50 0,0
17.08.2018 17:00:00 23,2 8,8 11 6 32 17 N 20 57 0,0
17.08.2018 16:00:00 21,9 9,0 10 5 31 17 NE 20 27 0,0
17.08.2018 15:00:00 22,2 9,7 15 8 31 17 ENE 20 28 0,0
17.08.2018 14:00:00 21,7 9,3 16 9 31 17 ESE 20 8 -
17.08.2018 13:00:00 21,0 9,6 14 7 35 19 E 20 2 0,0
17.08.2018 12:00:00 22,3 9,0 21 11 36 19 E 20 60 0,0
17.08.2018 11:00:00 21,1 9,9 5 3 13 7 N 20 60 0,0
17.08.2018 10:00:00 19,1 10,2 5 3 10 5 SE 20 60 0,0
17.08.2018 09:00:00 14,8 10,8 1 1 5 3 ENE 20 59 0,0
17.08.2018 08:00:00 10,9 9,0 3 1 6 3 E 16 7 -
17.08.2018 07:00:00 10,2 8,8 3 2 7 4 NNW 12 0 0,0
17.08.2018 06:00:00 10,2 8,5 1 1 5 3 NW 13 0 0,0
17.08.2018 05:00:00 10,6 8,9 3 1 5 3 W 17 0 0,0
17.08.2018 04:00:00 11,2 9,3 3 1 5 3 NW 14 0 0,0
17.08.2018 03:00:00 12,3 9,2 1 1 5 3 ENE 18 0 0,0
17.08.2018 02:00:00 14,4 10,0 2 1 11 6 NNE 20 0 -
17.08.2018 01:00:00 15,7 11,1 4 2 16 9 ESE 20 0 0,0
17.08.2018 00:00:00 16,8 11,1 8 4 19 10 SSW 20 0 0,0
16.08.2018 23:00:00 17,8 10,6 17 9 33 18 E 20 0 0,0
16.08.2018 22:00:00 18,7 10,8 14 8 23 13 ESE 20 0 0,0
16.08.2018 21:00:00 21,6 11,0 7 4 21 11 SSE 20 58 0,0
16.08.2018 20:00:00 - - - - - - - - - -
16.08.2018 19:00:00 27,0 9,8 16 8 38 20 NNW 20 60 0,0
16.08.2018 18:00:00 29,6 1,9 16 8 44 24 NW 20 60 0,0
16.08.2018 17:00:00 30,0 -0,5 16 8 39 21 WNW 20 60 0,0
16.08.2018 16:00:00 28,3 7,0 11 6 32 17 NNW 20 54 0,0
16.08.2018 15:00:00 30,4 4,1 11 6 26 14 WNW 20 54 0,0
16.08.2018 14:00:00 28,8 6,2 9 5 22 12 WNW 20 52 -
16.08.2018 13:00:00 27,6 8,0 11 6 23 12 SE 20 59 0,0
16.08.2018 12:00:00 26,5 10,2 9 5 19 10 ESE 20 60 0,0
16.08.2018 11:00:00 24,1 12,4 9 5 19 10 S 20 60 0,0
16.08.2018 10:00:00 22,0 12,2 8 4 15 8 E 20 60 0,0
16.08.2018 09:00:00 16,1 10,2 3 2 11 6 E 20 60 0,0
16.08.2018 08:00:00 14,0 8,1 7 4 12 6 S 20 7 -
16.08.2018 07:00:00 14,1 7,8 5 3 18 10 SSE 20 0 0,0
16.08.2018 06:00:00 15,8 7,8 3 2 18 10 S 20 0 0,0
16.08.2018 05:00:00 16,1 8,1 5 3 15 8 SSE 20 0 0,0
16.08.2018 04:00:00 15,1 7,1 3 2 9 5 E 20 0 0,0
16.08.2018 03:00:00 14,9 7,1 2 1 9 5 SW 20 0 0,0
16.08.2018 02:00:00 14,7 7,4 4 2 8 4 E 20 0 -
16.08.2018 01:00:00 17,5 7,6 8 4 14 7 ESE 20 0 0,0
16.08.2018 00:00:00 17,2 6,4 4 2 19 11 SSE 20 0 0,0
15.08.2018 23:00:00 17,5 3,4 10 5 17 9 S 20 0 0,0
15.08.2018 22:00:00 18,8 3,8 3 2 11 6 ESE 20 1 0,0
15.08.2018 21:00:00 25,4 2,7 2 1 9 5 WSW 20 60 0,0
15.08.2018 20:00:00 29,5 1,9 3 2 17 9 NW 20 60 -
15.08.2018 19:00:00 30,0 -0,5 8 5 23 12 NNW 20 60 0,0
15.08.2018 18:00:00 30,7 -2,0 7 4 23 12 NW 20 60 0,0
15.08.2018 17:00:00 30,8 -2,0 10 5 26 14 SW 20 60 0,0
15.08.2018 16:00:00 30,3 -1,2 10 5 24 13 SW 20 60 0,0
15.08.2018 15:00:00 29,3 3,2 6 3 20 11 ESE 20 60 0,0
15.08.2018 14:00:00 27,9 5,5 7 4 18 10 NNW 20 60 -
15.08.2018 13:00:00 26,6 6,5 7 4 17 9 SE 20 60 0,0
15.08.2018 12:00:00 24,3 5,6 8 4 15 8 E 20 60 0,0
15.08.2018 11:00:00 20,6 5,5 3 2 10 5 SE 20 60 0,0
15.08.2018 10:00:00 15,3 4,3 4 2 9 5 ENE 20 60 0,0
15.08.2018 09:00:00 10,2 4,3 3 1 7 4 SSE 20 60 0,0
15.08.2018 08:00:00 4,6 2,7 2 1 9 5 SW 20 20 -
15.08.2018 07:00:00 4,2 2,5 3 2 6 3 E 20 0 0,0
15.08.2018 06:00:00 4,6 2,9 2 1 7 4 SSE 20 0 0,0
15.08.2018 05:00:00 5,5 3,6 2 1 5 3 E 20 0 0,0
15.08.2018 04:00:00 6,1 4,3 1 1 5 3 NNW 20 0 0,0

tt = Température de l'air
td = dewpoint
ff = Vitesse du vent
fx = gusts
dd = Direction du vent
vv = visibility
sd = Ensoleillement
rr = Quantités de précipitations

stations d'obs. à proximité